createdAt,value
2022-10-31T00:01:20.331Z,11.00
2022-10-31T00:06:23.171Z,11.00
2022-10-31T00:11:26.160Z,11.00
2022-10-31T00:16:30.850Z,11.00
2022-10-31T00:21:33.889Z,11.00
2022-10-31T00:26:36.216Z,10.90
2022-10-31T00:31:39.666Z,10.80
2022-10-31T00:36:41.739Z,10.80
2022-10-31T00:41:43.912Z,10.90
2022-10-31T00:46:47.344Z,11.00
2022-10-31T00:51:49.562Z,10.90
2022-10-31T00:56:51.815Z,10.90
2022-10-31T01:01:55.343Z,10.90
2022-10-31T01:06:57.553Z,10.90
2022-10-31T01:11:59.661Z,10.90
2022-10-31T01:17:03.456Z,10.80
2022-10-31T01:22:05.567Z,10.70
2022-10-31T01:27:07.812Z,10.60
2022-10-31T01:32:11.433Z,10.50
2022-10-31T01:37:13.513Z,10.40
2022-10-31T01:42:20.862Z,10.40
2022-10-31T01:47:40.745Z,10.40
2022-10-31T01:52:44.921Z,10.50
2022-10-31T01:57:50.457Z,10.50
2022-10-31T02:02:57.037Z,10.60
2022-10-31T02:08:03.839Z,10.60
2022-10-31T02:13:07.457Z,10.70
2022-10-31T02:18:11.255Z,10.70
2022-10-31T02:23:47.842Z,10.60
2022-10-31T02:29:19.302Z,10.60
2022-10-31T02:34:28.409Z,10.50
2022-10-31T02:39:39.160Z,10.30
2022-10-31T02:44:49.128Z,10.30
2022-10-31T02:49:58.129Z,10.40
2022-10-31T02:55:00.471Z,10.50
2022-10-31T03:00:05.725Z,10.50
2022-10-31T03:05:25.468Z,10.50
2022-10-31T03:10:36.439Z,10.50
2022-10-31T03:15:41.772Z,10.40
2022-10-31T03:20:50.108Z,10.40
2022-10-31T03:25:54.980Z,10.50
2022-10-31T03:31:00.404Z,10.50
2022-10-31T03:36:10.025Z,10.50
2022-10-31T03:41:18.522Z,10.60
2022-10-31T03:46:20.746Z,10.60
2022-10-31T03:51:28.677Z,10.60
2022-10-31T03:56:35.661Z,10.60
2022-10-31T04:01:42.202Z,10.60
2022-10-31T04:06:47.944Z,10.40
2022-10-31T04:11:53.768Z,10.00
2022-10-31T04:16:56.302Z,9.80
2022-10-31T04:21:59.777Z,9.80
2022-10-31T04:27:01.828Z,10.00
2022-10-31T04:32:03.927Z,10.00
2022-10-31T04:37:07.397Z,10.00
2022-10-31T04:42:09.487Z,10.00
2022-10-31T04:47:11.543Z,10.10
2022-10-31T04:52:15.265Z,10.00
2022-10-31T04:57:17.293Z,10.00
2022-10-31T05:02:19.391Z,10.00
2022-10-31T05:07:22.868Z,10.10
2022-10-31T05:12:24.967Z,10.00
2022-10-31T05:17:27.033Z,10.00
2022-10-31T05:22:30.438Z,10.10
2022-10-31T05:27:32.516Z,10.20
2022-10-31T05:32:39.589Z,10.30
2022-10-31T05:37:43.058Z,10.30
2022-10-31T05:42:46.000Z,10.20
2022-10-31T05:47:53.109Z,10.30
2022-10-31T05:53:01.981Z,10.20
2022-10-31T05:58:04.424Z,10.00
2022-10-31T06:08:12.728Z,10.10
2022-10-31T06:13:14.862Z,10.10
2022-10-31T06:18:16.901Z,10.20
2022-10-31T06:23:20.396Z,10.20
2022-10-31T06:28:22.505Z,10.30
2022-10-31T06:33:24.630Z,10.30
2022-10-31T06:38:29.633Z,10.40
2022-10-31T06:43:31.763Z,10.50
2022-10-31T06:48:37.528Z,10.50
2022-10-31T06:53:40.980Z,10.60
2022-10-31T06:58:43.426Z,10.70
2022-10-31T07:03:45.778Z,10.70
2022-10-31T07:08:49.233Z,10.80
2022-10-31T07:13:51.430Z,10.90
2022-10-31T07:18:53.857Z,11.00
2022-10-31T07:23:58.743Z,11.10
2022-10-31T07:29:01.065Z,11.10
2022-10-31T07:34:03.851Z,11.10
2022-10-31T07:39:07.299Z,11.00
2022-10-31T07:44:12.342Z,10.90
2022-10-31T07:49:17.388Z,11.00
2022-10-31T07:54:20.880Z,11.30
2022-10-31T07:59:23.247Z,11.40
2022-10-31T08:04:25.717Z,11.50
2022-10-31T08:09:31.734Z,11.50
2022-10-31T08:14:36.385Z,11.50
2022-10-31T08:19:44.143Z,11.60
2022-10-31T08:24:47.607Z,11.60
2022-10-31T08:29:50.095Z,11.50
2022-10-31T08:34:55.131Z,11.60
2022-10-31T08:39:58.568Z,11.70
2022-10-31T08:45:00.706Z,11.70
2022-10-31T08:50:03.228Z,11.90
2022-10-31T08:55:07.825Z,12.00
2022-10-31T09:00:11.676Z,11.90
2022-10-31T09:05:16.586Z,12.00
2022-10-31T09:10:20.104Z,12.10
2022-10-31T09:15:23.336Z,12.10
2022-10-31T09:20:25.709Z,12.20
2022-10-31T09:25:29.587Z,12.20
2022-10-31T09:30:34.110Z,12.20
2022-10-31T09:35:36.215Z,12.30
2022-10-31T09:40:41.401Z,12.30
2022-10-31T09:45:54.173Z,12.40
2022-10-31T09:51:00.854Z,12.50
2022-10-31T09:56:08.319Z,12.50
2022-10-31T10:01:22.506Z,12.50
2022-10-31T10:06:27.754Z,12.50
2022-10-31T10:11:42.433Z,12.60
2022-10-31T10:17:06.388Z,12.70
2022-10-31T10:22:14.594Z,12.50
2022-10-31T10:27:46.611Z,12.60
2022-10-31T10:32:52.581Z,12.60
2022-10-31T10:38:02.632Z,12.60
2022-10-31T10:43:24.772Z,12.80
2022-10-31T10:48:39.019Z,12.80
2022-10-31T10:54:05.222Z,12.90
2022-10-31T10:59:18.406Z,12.90
2022-10-31T11:04:37.407Z,12.90
2022-10-31T11:09:40.295Z,13.00
2022-10-31T11:14:50.279Z,12.90
2022-10-31T11:20:04.524Z,13.00
2022-10-31T11:25:23.413Z,12.90
2022-10-31T11:30:26.839Z,12.90
2022-10-31T11:35:30.643Z,12.90
2022-10-31T11:40:32.804Z,12.90
2022-10-31T11:45:39.667Z,12.80
2022-10-31T11:50:43.426Z,12.90
2022-10-31T11:55:46.875Z,12.90
2022-10-31T12:00:59.283Z,12.90
2022-10-31T12:06:07.077Z,12.90
2022-10-31T12:11:19.077Z,12.90
2022-10-31T12:16:34.168Z,12.80
2022-10-31T12:22:06.674Z,12.90
2022-10-31T12:27:22.138Z,12.80
2022-10-31T12:32:40.807Z,12.80
2022-10-31T12:37:54.942Z,12.80
2022-10-31T12:43:10.211Z,12.80
2022-10-31T12:48:44.445Z,12.80
2022-10-31T12:54:00.167Z,12.80
2022-10-31T12:59:10.123Z,12.80
2022-10-31T13:04:18.955Z,12.80
2022-10-31T13:09:27.426Z,12.80
2022-10-31T13:14:41.263Z,12.80
2022-10-31T13:19:47.503Z,12.80
2022-10-31T13:24:55.599Z,12.70
2022-10-31T13:30:04.208Z,12.50
2022-10-31T13:35:15.612Z,12.50
2022-10-31T13:40:32.829Z,12.50
2022-10-31T13:45:35.031Z,12.50
2022-10-31T13:50:41.943Z,12.40
2022-10-31T13:55:46.233Z,12.40
2022-10-31T14:00:48.989Z,12.10
2022-10-31T14:05:57.098Z,12.10
2022-10-31T14:10:59.500Z,11.90
2022-10-31T14:16:04.883Z,11.80
2022-10-31T14:21:37.838Z,11.90
2022-10-31T14:26:40.014Z,11.90
2022-10-31T14:31:45.936Z,11.90
2022-10-31T14:37:01.171Z,11.90
2022-10-31T14:42:19.881Z,11.80
2022-10-31T14:47:32.652Z,11.80
2022-10-31T14:52:38.649Z,11.70
2022-10-31T14:57:51.270Z,11.60
2022-10-31T15:03:06.983Z,11.50
2022-10-31T15:08:28.803Z,11.40
2022-10-31T15:13:30.966Z,11.40
2022-10-31T15:18:33.087Z,11.40
2022-10-31T15:23:37.360Z,11.50
2022-10-31T15:28:39.531Z,11.50
2022-10-31T15:33:48.121Z,11.50
2022-10-31T15:38:52.751Z,11.40
2022-10-31T15:43:55.038Z,11.40
2022-10-31T15:48:57.471Z,11.30
2022-10-31T15:54:02.100Z,11.30
2022-10-31T15:59:04.553Z,11.30
2022-10-31T16:04:21.556Z,11.30
2022-10-31T16:09:26.234Z,11.30
2022-10-31T16:14:30.594Z,11.30
2022-10-31T16:19:34.668Z,11.30
2022-10-31T16:24:48.145Z,11.20
2022-10-31T16:29:50.275Z,11.10
2022-10-31T16:35:00.588Z,11.00
2022-10-31T16:40:04.235Z,11.00
2022-10-31T16:45:08.178Z,11.00
2022-10-31T16:50:16.137Z,11.00
2022-10-31T16:55:21.615Z,10.90
2022-10-31T17:00:26.664Z,11.00
2022-10-31T17:05:30.698Z,10.90
2022-10-31T17:10:35.288Z,10.80
2022-10-31T17:15:44.437Z,10.80
2022-10-31T17:20:47.386Z,10.80
2022-10-31T17:25:51.236Z,10.80
2022-10-31T17:30:56.455Z,10.70
2022-10-31T17:35:59.385Z,10.70
2022-10-31T17:41:10.091Z,10.80
2022-10-31T17:46:13.989Z,10.70
2022-10-31T17:51:16.371Z,10.90
2022-10-31T17:56:20.246Z,10.70
2022-10-31T18:01:22.527Z,10.50
2022-10-31T18:06:25.008Z,10.40
2022-10-31T18:11:29.062Z,10.30
2022-10-31T18:16:31.366Z,10.20
2022-10-31T18:21:34.944Z,10.30
2022-10-31T18:26:39.618Z,10.30
2022-10-31T18:31:41.723Z,10.30
2022-10-31T18:36:44.573Z,10.30
2022-10-31T18:41:48.160Z,10.20
2022-10-31T18:46:50.960Z,10.20
2022-10-31T18:51:56.629Z,10.20
2022-10-31T18:57:00.947Z,10.10
2022-10-31T19:02:04.040Z,10.10
2022-10-31T19:07:06.975Z,10.20
2022-10-31T19:12:11.397Z,10.20
2022-10-31T19:17:13.906Z,10.20
2022-10-31T19:22:17.352Z,10.20
2022-10-31T19:27:21.698Z,10.20
2022-10-31T19:32:25.313Z,10.20
2022-10-31T19:37:28.477Z,10.10
2022-10-31T19:42:34.557Z,10.10
2022-10-31T19:47:36.994Z,10.10
2022-10-31T19:52:39.492Z,10.10
2022-10-31T20:03:06.183Z,10.00
2022-10-31T20:08:08.481Z,10.10
2022-10-31T20:13:14.964Z,10.10
2022-10-31T20:18:18.068Z,10.10
2022-10-31T20:23:22.071Z,10.10
2022-10-31T20:28:27.095Z,10.00
2022-10-31T20:33:29.724Z,10.00
2022-10-31T20:38:32.043Z,10.00
2022-10-31T20:43:36.516Z,9.90
2022-10-31T20:48:41.202Z,9.90
2022-10-31T20:53:44.701Z,9.80
2022-10-31T20:58:49.425Z,9.80
2022-10-31T21:03:52.646Z,9.80
2022-10-31T21:08:55.221Z,9.80
2022-10-31T21:14:02.343Z,9.80
2022-10-31T21:19:06.026Z,9.90
2022-10-31T21:24:09.887Z,9.90
2022-10-31T21:29:14.999Z,9.90
2022-10-31T21:34:17.223Z,9.90
2022-10-31T21:39:19.561Z,9.90
2022-10-31T21:44:23.194Z,9.90
2022-10-31T21:49:25.283Z,9.90
2022-10-31T21:54:31.325Z,9.90
2022-10-31T21:59:34.994Z,9.80
2022-10-31T22:04:37.297Z,9.80
2022-10-31T22:09:41.385Z,9.80
2022-10-31T22:14:45.019Z,9.80
2022-10-31T22:19:49.927Z,9.80
2022-10-31T22:24:52.197Z,9.80
2022-10-31T22:29:56.854Z,9.80
2022-10-31T22:34:59.024Z,9.80
2022-10-31T22:40:01.231Z,9.70
2022-10-31T22:45:05.145Z,9.70
2022-10-31T22:50:07.849Z,9.80
2022-10-31T22:55:10.979Z,9.70
2022-10-31T23:00:15.133Z,9.80
2022-10-31T23:05:17.421Z,9.70
2022-10-31T23:10:19.695Z,9.70
2022-10-31T23:15:23.133Z,9.80
2022-10-31T23:20:25.258Z,9.80
2022-10-31T23:25:44.843Z,9.80
2022-10-31T23:30:48.488Z,9.80
2022-10-31T23:35:50.628Z,9.70
2022-10-31T23:40:53.127Z,9.80
2022-10-31T23:45:56.599Z,9.70
2022-10-31T23:50:58.701Z,9.70
2022-10-31T23:56:00.833Z,9.80
